createdAt,value
2022-12-23T00:00:10.912Z,78.10
2022-12-23T00:03:12.815Z,64.60
2022-12-23T00:06:16.455Z,70.47
2022-12-23T00:09:18.100Z,67.85
2022-12-23T00:12:38.371Z,76.97
2022-12-23T00:15:39.993Z,78.05
2022-12-23T00:18:42.499Z,80.85
2022-12-23T00:21:44.181Z,91.07
2022-12-23T00:24:45.827Z,85.72
2022-12-23T00:28:01.427Z,86.57
2022-12-23T00:31:05.955Z,91.90
2022-12-23T00:34:07.655Z,94.82
2022-12-23T00:37:09.307Z,92.22
2022-12-23T00:40:33.142Z,99.47
2022-12-23T00:43:34.774Z,94.45
2022-12-23T00:46:36.729Z,94.45
2022-12-23T00:49:44.256Z,92.45
2022-12-23T00:55:47.983Z,94.85
2022-12-23T00:58:49.734Z,97.28
2022-12-23T01:02:10.207Z,95.65
2022-12-23T01:05:30.256Z,98.70
2022-12-23T01:08:31.887Z,102.80
2022-12-23T01:11:34.226Z,99.05
2022-12-23T01:14:35.946Z,95.25
2022-12-23T01:17:37.606Z,95.87
2022-12-23T01:20:40.258Z,100.07
2022-12-23T01:23:41.906Z,101.38
2022-12-23T01:26:43.657Z,102.78
2022-12-23T01:29:46.059Z,98.40
2022-12-23T01:32:47.803Z,110.15
2022-12-23T01:35:49.776Z,95.38
2022-12-23T01:38:51.691Z,97.47
2022-12-23T01:42:11.800Z,102.50
2022-12-23T01:45:24.863Z,102.97
2022-12-23T01:48:30.464Z,92.72
2022-12-23T01:51:32.358Z,97.72
2022-12-23T01:54:36.228Z,97.15
2022-12-23T01:57:41.741Z,92.43
2022-12-23T02:01:02.564Z,88.78
2022-12-23T02:04:08.063Z,90.65
2022-12-23T02:07:29.723Z,84.80
2022-12-23T02:10:44.661Z,80.45
2022-12-23T02:14:19.962Z,81.70
2022-12-23T02:17:28.190Z,86.85
2022-12-23T02:20:32.798Z,89.93
2022-12-23T02:23:43.761Z,87.22
2022-12-23T02:27:15.253Z,83.28
2022-12-23T02:30:48.870Z,99.40
2022-12-23T02:34:12.399Z,83.82
2022-12-23T02:37:20.169Z,76.60
2022-12-23T02:40:24.721Z,87.78
2022-12-23T02:43:51.514Z,96.40
2022-12-23T02:47:00.914Z,104.85
2022-12-23T02:50:09.121Z,96.03
2022-12-23T02:53:25.888Z,90.20
2022-12-23T02:56:30.567Z,102.12
2022-12-23T02:59:52.214Z,110.40
2022-12-23T03:02:53.974Z,99.20
2022-12-23T03:05:56.252Z,104.30
2022-12-23T03:09:00.396Z,106.18
2022-12-23T03:12:19.737Z,114.60
2022-12-23T03:15:41.493Z,131.32
2022-12-23T03:19:06.304Z,139.48
2022-12-23T03:22:13.990Z,134.73
2022-12-23T03:25:26.779Z,144.77
2022-12-23T03:28:34.640Z,125.00
2022-12-23T03:31:38.017Z,130.80
2022-12-23T03:34:44.470Z,179.25
2022-12-23T03:37:50.562Z,160.93
2022-12-23T03:41:00.893Z,141.05
2022-12-23T03:45:03.545Z,154.90
2022-12-23T03:48:31.838Z,148.87
2022-12-23T03:54:52.137Z,141.77
2022-12-23T03:58:38.986Z,205.52
2022-12-23T04:02:17.880Z,209.27
2022-12-23T04:08:30.215Z,185.85
2022-12-23T04:11:33.361Z,274.37
2022-12-23T04:14:36.752Z,225.90
2022-12-23T04:17:38.569Z,198.15
2022-12-23T04:20:40.283Z,225.25
2022-12-23T04:23:41.991Z,226.32
2022-12-23T04:26:43.675Z,259.73
2022-12-23T04:29:45.456Z,262.52
2022-12-23T04:32:47.141Z,156.57
2022-12-23T04:35:48.855Z,173.90
2022-12-23T04:38:50.526Z,145.68
2022-12-23T04:41:52.171Z,179.75
2022-12-23T04:44:53.925Z,224.37
2022-12-23T04:47:55.711Z,286.62
2022-12-23T04:50:57.352Z,222.00
2022-12-23T04:53:59.020Z,182.35
2022-12-23T04:57:00.860Z,174.95
2022-12-23T05:00:04.104Z,183.68
2022-12-23T05:03:06.286Z,278.65
2022-12-23T05:06:08.558Z,187.43
2022-12-23T05:09:10.308Z,174.27
2022-12-23T05:12:12.685Z,177.87
2022-12-23T05:15:14.334Z,202.93
2022-12-23T05:18:16.314Z,187.43
2022-12-23T05:21:18.127Z,272.27
2022-12-23T05:24:19.801Z,213.32
2022-12-23T05:27:21.483Z,147.52
2022-12-23T05:30:23.143Z,135.50
2022-12-23T05:33:24.840Z,157.75
2022-12-23T05:36:26.590Z,202.80
2022-12-23T05:39:28.235Z,132.95
2022-12-23T05:42:29.908Z,253.90
2022-12-23T05:45:31.654Z,130.10
2022-12-23T05:48:33.482Z,135.88
2022-12-23T05:51:35.146Z,239.05
2022-12-23T05:54:36.821Z,195.50
2022-12-23T05:57:38.600Z,197.98
2022-12-23T06:00:40.265Z,128.40
2022-12-23T06:03:42.030Z,176.57
2022-12-23T06:06:44.206Z,132.27
2022-12-23T06:09:45.912Z,168.43
2022-12-23T06:12:47.713Z,133.87
2022-12-23T06:15:49.471Z,195.82
2022-12-23T06:18:55.655Z,130.30
2022-12-23T06:21:57.296Z,186.88
2022-12-23T06:24:59.003Z,214.98
2022-12-23T06:28:00.693Z,157.88
2022-12-23T06:31:02.429Z,173.80
2022-12-23T06:34:04.126Z,196.52
2022-12-23T06:37:05.815Z,167.68
2022-12-23T06:40:08.069Z,168.70
2022-12-23T06:43:11.407Z,159.80
2022-12-23T06:46:14.279Z,201.32
2022-12-23T06:49:15.973Z,105.47
2022-12-23T06:52:17.736Z,129.85
2022-12-23T06:55:19.408Z,133.40
2022-12-23T06:58:21.030Z,145.87
2022-12-23T07:01:22.748Z,175.12
2022-12-23T07:04:24.453Z,175.38
2022-12-23T07:07:26.140Z,145.48
2022-12-23T07:10:27.814Z,196.05
2022-12-23T07:13:30.383Z,131.18
2022-12-23T07:16:32.170Z,201.07
2022-12-23T07:19:34.312Z,128.85
2022-12-23T07:22:35.943Z,164.20
2022-12-23T07:25:38.146Z,116.05
2022-12-23T07:28:40.009Z,112.43
2022-12-23T07:31:41.760Z,151.00
2022-12-23T07:34:43.581Z,126.90
2022-12-23T07:37:45.595Z,83.60
2022-12-23T07:40:49.168Z,94.47
2022-12-23T07:43:50.841Z,91.12
2022-12-23T07:46:52.474Z,99.07
2022-12-23T07:49:54.210Z,112.55
2022-12-23T07:52:56.183Z,195.80
2022-12-23T07:55:57.908Z,130.05
2022-12-23T07:58:59.567Z,138.50
2022-12-23T08:02:01.414Z,147.40
2022-12-23T08:05:03.253Z,192.00
2022-12-23T08:08:05.133Z,116.45
2022-12-23T08:11:09.202Z,173.82
2022-12-23T08:14:10.883Z,139.60
2022-12-23T08:17:12.611Z,87.75
2022-12-23T08:20:14.357Z,83.28
2022-12-23T08:23:19.997Z,108.87
2022-12-23T08:26:26.343Z,95.15
2022-12-23T08:29:31.286Z,94.20
2022-12-23T08:32:37.516Z,131.05
2022-12-23T08:35:39.274Z,120.50
2022-12-23T08:38:41.432Z,104.93
2022-12-23T08:41:45.814Z,85.32
2022-12-23T08:44:47.478Z,84.03
2022-12-23T08:47:49.136Z,85.00
2022-12-23T08:50:50.773Z,83.40
2022-12-23T08:54:00.473Z,92.75
2022-12-23T08:57:02.426Z,86.95
2022-12-23T09:00:04.537Z,76.40
2022-12-23T09:03:06.927Z,92.18
2022-12-23T09:06:16.712Z,123.68
2022-12-23T09:09:18.382Z,106.78
2022-12-23T09:12:20.057Z,186.25
2022-12-23T09:15:21.799Z,110.53
2022-12-23T09:18:23.441Z,130.57
2022-12-23T09:21:25.597Z,118.95
2022-12-23T09:24:27.262Z,106.65
2022-12-23T09:27:28.935Z,83.18
2022-12-23T09:30:30.602Z,75.53
2022-12-23T09:33:32.242Z,100.55
2022-12-23T09:36:34.068Z,103.12
2022-12-23T09:39:35.701Z,90.25
2022-12-23T09:43:16.085Z,83.03
2022-12-23T09:46:22.959Z,70.03
2022-12-23T09:49:24.694Z,66.65
2022-12-23T09:52:50.134Z,78.28
2022-12-23T09:56:00.410Z,91.32
2022-12-23T09:59:24.452Z,75.93
2022-12-23T10:02:48.341Z,70.37
2022-12-23T10:06:08.714Z,81.87
2022-12-23T10:09:13.598Z,77.35
2022-12-23T10:12:40.256Z,74.60
2022-12-23T10:15:47.380Z,81.40
2022-12-23T10:19:07.668Z,75.75
2022-12-23T10:22:23.913Z,85.10
2022-12-23T10:25:34.812Z,94.30
2022-12-23T10:28:36.477Z,93.60
2022-12-23T10:31:59.506Z,99.28
2022-12-23T10:35:35.576Z,102.32
2022-12-23T10:39:06.098Z,84.15
2022-12-23T10:42:42.383Z,88.03
2022-12-23T10:46:11.901Z,82.70
2022-12-23T10:49:38.359Z,79.68
2022-12-23T10:52:42.988Z,77.32
2022-12-23T10:55:45.461Z,73.07
2022-12-23T10:58:52.946Z,83.65
2022-12-23T11:02:02.419Z,77.37
2022-12-23T11:05:12.365Z,79.32
2022-12-23T11:08:14.162Z,75.32
2022-12-23T11:11:15.823Z,70.15
2022-12-23T11:14:32.807Z,76.30
2022-12-23T11:17:35.175Z,72.35
2022-12-23T11:20:37.519Z,69.45
2022-12-23T11:23:39.157Z,68.37
2022-12-23T11:26:41.292Z,70.87
2022-12-23T11:29:51.580Z,92.85
2022-12-23T11:32:54.152Z,67.40
2022-12-23T11:36:14.592Z,66.28
2022-12-23T11:39:20.648Z,63.85
2022-12-23T11:42:29.119Z,68.18
2022-12-23T11:45:36.042Z,61.03
2022-12-23T11:48:38.592Z,63.63
2022-12-23T11:51:40.476Z,63.60
2022-12-23T11:54:54.356Z,74.35
2022-12-23T11:57:56.753Z,62.42
2022-12-23T12:01:00.881Z,59.72
2022-12-23T12:04:17.877Z,63.30
2022-12-23T12:07:19.703Z,56.78
2022-12-23T12:10:26.258Z,63.80
2022-12-23T12:13:44.502Z,72.12
2022-12-23T12:16:55.295Z,64.70
2022-12-23T12:20:10.628Z,58.60
2022-12-23T12:23:21.168Z,56.65
2022-12-23T12:26:29.708Z,53.65
2022-12-23T12:29:34.253Z,49.88
2022-12-23T12:33:24.012Z,49.78
2022-12-23T12:36:52.771Z,57.95
2022-12-23T12:40:01.038Z,52.92
2022-12-23T12:43:14.456Z,93.32
2022-12-23T12:46:34.335Z,262.83
2022-12-23T12:49:43.366Z,102.85
2022-12-23T12:52:45.063Z,131.63
2022-12-23T12:55:57.231Z,128.85
2022-12-23T12:58:59.126Z,100.10
2022-12-23T13:02:00.924Z,72.37
2022-12-23T13:05:33.554Z,95.85
2022-12-23T13:08:51.391Z,94.37
2022-12-23T13:12:15.712Z,66.62
2022-12-23T13:15:20.143Z,69.22
2022-12-23T13:18:47.792Z,74.28
2022-12-23T13:22:09.011Z,69.07
2022-12-23T13:25:24.352Z,73.65
2022-12-23T13:28:33.128Z,68.22
2022-12-23T13:31:58.184Z,79.72
2022-12-23T13:35:18.970Z,127.45
2022-12-23T13:38:39.036Z,66.87
2022-12-23T13:41:53.545Z,78.15
2022-12-23T13:44:56.632Z,83.07
2022-12-23T13:48:13.223Z,73.22
2022-12-23T13:51:26.503Z,75.70
2022-12-23T13:54:37.113Z,91.90
2022-12-23T13:57:48.391Z,83.25
2022-12-23T14:00:58.831Z,78.43
2022-12-23T14:04:37.009Z,88.97
2022-12-23T14:07:38.735Z,85.12
2022-12-23T14:10:57.415Z,83.40
2022-12-23T14:14:01.617Z,85.65
2022-12-23T14:17:26.355Z,87.93
2022-12-23T14:20:36.688Z,90.43
2022-12-23T14:24:24.889Z,81.35
2022-12-23T14:27:35.349Z,86.60
2022-12-23T14:30:41.257Z,88.87
2022-12-23T14:33:48.883Z,81.65
2022-12-23T14:37:17.041Z,79.90
2022-12-23T14:40:37.046Z,85.07
2022-12-23T14:43:44.606Z,84.10
2022-12-23T14:49:48.061Z,96.00
2022-12-23T14:52:59.324Z,88.45
2022-12-23T14:56:10.519Z,111.20
2022-12-23T14:59:33.139Z,215.87
2022-12-23T15:02:38.933Z,183.87
2022-12-23T15:05:40.881Z,124.93
2022-12-23T15:08:45.968Z,94.32
2022-12-23T15:11:48.202Z,145.45
2022-12-23T15:14:57.656Z,102.03
2022-12-23T15:18:20.464Z,91.35
2022-12-23T15:21:31.245Z,92.30
2022-12-23T15:24:32.913Z,122.95
2022-12-23T15:27:36.236Z,116.37
2022-12-23T15:30:48.295Z,89.05
2022-12-23T15:34:08.882Z,99.68
2022-12-23T15:37:15.823Z,92.62
2022-12-23T15:40:28.214Z,84.57
2022-12-23T15:43:30.452Z,72.70
2022-12-23T15:46:32.124Z,83.32
2022-12-23T15:49:33.834Z,69.80
2022-12-23T15:52:35.497Z,75.90
2022-12-23T15:55:41.341Z,78.78
2022-12-23T15:58:43.512Z,108.55
2022-12-23T16:01:45.318Z,109.05
2022-12-23T16:05:00.388Z,96.80
2022-12-23T16:08:15.992Z,90.07
2022-12-23T16:11:20.229Z,94.80
2022-12-23T16:14:31.056Z,88.45
2022-12-23T16:17:36.677Z,94.60
2022-12-23T16:20:47.685Z,101.32
2022-12-23T16:23:52.275Z,89.40
2022-12-23T16:26:56.341Z,102.90
2022-12-23T16:30:01.738Z,104.53
2022-12-23T16:33:23.505Z,118.25
2022-12-23T16:36:25.150Z,153.32
2022-12-23T16:39:26.866Z,131.52
2022-12-23T16:42:28.523Z,127.05
2022-12-23T16:45:34.446Z,105.32
2022-12-23T16:48:39.578Z,108.00
2022-12-23T16:51:41.359Z,97.97
2022-12-23T16:54:43.384Z,117.70
2022-12-23T16:57:45.890Z,106.28
2022-12-23T17:00:47.870Z,116.30
2022-12-23T17:03:49.995Z,102.00
2022-12-23T17:06:51.641Z,101.43
2022-12-23T17:09:54.310Z,104.60
2022-12-23T17:12:55.980Z,111.68
2022-12-23T17:15:57.682Z,102.18
2022-12-23T17:19:00.128Z,116.70
2022-12-23T17:22:03.406Z,110.70
2022-12-23T17:25:06.112Z,106.32
2022-12-23T17:28:10.881Z,105.18
2022-12-23T17:31:16.190Z,179.10
2022-12-23T17:34:24.390Z,148.60
2022-12-23T17:37:26.042Z,166.52
2022-12-23T17:40:27.737Z,123.57
2022-12-23T17:43:29.465Z,138.27
2022-12-23T17:46:31.494Z,99.25
2022-12-23T17:49:33.197Z,161.93
2022-12-23T17:52:34.863Z,110.40
2022-12-23T17:55:36.530Z,102.20
2022-12-23T17:58:38.829Z,108.00
2022-12-23T18:01:40.487Z,153.12
2022-12-23T18:04:43.245Z,179.93
2022-12-23T18:07:44.925Z,257.37
2022-12-23T18:10:46.563Z,238.77
2022-12-23T18:13:50.099Z,116.90
2022-12-23T18:16:51.787Z,201.90
2022-12-23T18:19:53.562Z,273.45
2022-12-23T18:22:55.505Z,196.63
2022-12-23T18:25:58.331Z,249.07
2022-12-23T18:28:59.961Z,200.23
2022-12-23T18:32:01.678Z,231.25
2022-12-23T18:35:03.817Z,223.18
2022-12-23T18:38:05.967Z,177.45
2022-12-23T18:41:12.122Z,172.55
2022-12-23T18:44:21.387Z,169.20
2022-12-23T18:47:23.180Z,132.82
2022-12-23T18:50:25.870Z,152.30
2022-12-23T18:53:27.569Z,115.80
2022-12-23T18:56:29.272Z,157.62
2022-12-23T18:59:33.034Z,217.87
2022-12-23T19:02:34.774Z,175.27
2022-12-23T19:05:37.882Z,308.27
2022-12-23T19:08:41.376Z,171.13
2022-12-23T19:11:43.658Z,125.50
2022-12-23T19:14:45.321Z,123.65
2022-12-23T19:17:48.143Z,119.75
2022-12-23T19:20:50.070Z,198.62
2022-12-23T19:23:51.748Z,321.08
2022-12-23T19:26:53.432Z,333.27
2022-12-23T19:29:55.230Z,219.52
2022-12-23T19:32:56.897Z,224.62
2022-12-23T19:35:58.653Z,283.77
2022-12-23T19:39:00.373Z,185.70
2022-12-23T19:42:02.065Z,185.63
2022-12-23T19:45:03.937Z,260.35
2022-12-23T19:48:06.027Z,191.73
2022-12-23T19:51:10.526Z,254.18
2022-12-23T19:54:12.277Z,314.27
2022-12-23T19:57:14.010Z,170.73
2022-12-23T20:00:16.145Z,201.82
2022-12-23T20:03:17.885Z,152.93
2022-12-23T20:06:21.336Z,275.73
2022-12-23T20:09:22.992Z,285.58
2022-12-23T20:12:26.732Z,168.48
2022-12-23T20:15:28.418Z,167.32
2022-12-23T20:18:30.499Z,206.02
2022-12-23T20:21:34.108Z,198.40
2022-12-23T20:24:36.298Z,146.95
2022-12-23T20:27:38.825Z,148.60
2022-12-23T20:30:42.758Z,159.68
2022-12-23T20:33:45.200Z,152.60
2022-12-23T20:36:47.133Z,141.37
2022-12-23T20:39:48.977Z,116.93
2022-12-23T20:42:50.720Z,109.63
2022-12-23T20:45:52.437Z,117.20
2022-12-23T20:48:54.392Z,128.18
2022-12-23T20:51:56.033Z,153.40
2022-12-23T20:54:57.798Z,147.52
2022-12-23T20:58:22.544Z,167.98
2022-12-23T21:01:31.746Z,137.18
2022-12-23T21:04:33.477Z,96.87
2022-12-23T21:07:35.138Z,135.48
2022-12-23T21:10:37.071Z,127.07
2022-12-23T21:13:40.504Z,156.32
2022-12-23T21:16:43.047Z,204.32
2022-12-23T21:19:44.848Z,213.62
2022-12-23T21:22:46.551Z,227.43
2022-12-23T21:25:48.208Z,115.93
2022-12-23T21:28:51.612Z,118.22
2022-12-23T21:31:53.465Z,205.57
2022-12-23T21:34:55.186Z,148.35
2022-12-23T21:37:56.833Z,188.43
2022-12-23T21:41:04.037Z,195.35
2022-12-23T21:44:06.001Z,154.93
2022-12-23T21:47:07.733Z,181.05
2022-12-23T21:50:09.889Z,234.77
2022-12-23T21:53:11.528Z,201.23
2022-12-23T21:56:15.870Z,174.15
2022-12-23T21:59:17.501Z,230.25
2022-12-23T22:02:19.258Z,183.37
2022-12-23T22:05:21.775Z,139.27
2022-12-23T22:08:23.376Z,116.18
2022-12-23T22:11:28.159Z,121.22
2022-12-23T22:14:29.864Z,217.57
2022-12-23T22:17:31.497Z,130.60
2022-12-23T22:20:33.161Z,172.27
2022-12-23T22:23:35.588Z,201.32
2022-12-23T22:26:37.452Z,349.20
2022-12-23T22:29:39.275Z,255.85
2022-12-23T22:32:42.755Z,273.58
2022-12-23T22:35:54.032Z,377.90
2022-12-23T22:38:58.169Z,255.05
2022-12-23T22:41:59.850Z,318.37
2022-12-23T22:45:01.676Z,241.52
2022-12-23T22:48:03.652Z,301.25
2022-12-23T22:51:14.513Z,200.23
2022-12-23T22:54:16.194Z,396.12
2022-12-23T22:57:17.830Z,347.70
2022-12-23T23:00:19.578Z,172.43
2022-12-23T23:03:21.574Z,341.60
2022-12-23T23:06:25.801Z,294.95
2022-12-23T23:09:27.534Z,281.23
2022-12-23T23:12:29.164Z,192.20
2022-12-23T23:15:30.829Z,161.62
2022-12-23T23:18:32.639Z,246.18
2022-12-23T23:21:34.395Z,251.48
2022-12-23T23:24:36.168Z,188.85
2022-12-23T23:27:37.848Z,198.80
2022-12-23T23:30:40.082Z,197.30
2022-12-23T23:33:41.718Z,315.73
2022-12-23T23:36:43.510Z,225.07
2022-12-23T23:39:45.282Z,264.05
2022-12-23T23:42:46.926Z,181.75
2022-12-23T23:45:49.130Z,212.77
2022-12-23T23:48:50.789Z,139.55
2022-12-23T23:51:52.520Z,201.07
2022-12-23T23:54:54.221Z,221.23
2022-12-23T23:57:55.922Z,186.40
